Time;durP1;ratioP1;P1;durP2;ratioP2;P2;SDS_P1;SDS_P2;PMS_P1;PMS_P2;Temp;Humidity;BMP_temperature;BMP_pressure;BME280_temperature;BME280_humidity;BME280_pressure;Samples;Min_cycle;Max_cycle;Signal;HPM_P1;HPM_P2
2023/03/24 00:01:02;;;;;;;10.50;7.13;;;;;;;;;;5068996;28;20220;-83
2023/03/24 00:03:30;;;;;;;9.30;6.17;;;;;;;;;;5071641;28;20243;-83
2023/03/24 00:05:57;;;;;;;11.80;6.90;;;;;;;;;;5072757;28;20185;-81
2023/03/24 00:08:23;;;;;;;8.80;6.23;;;;;;;;;;5071229;28;20176;-81
2023/03/24 00:10:52;;;;;;;9.17;6.50;;;;;;;;;;5072469;28;20204;-83
2023/03/24 00:13:18;;;;;;;9.50;6.67;;;;;;;;;;5068064;28;20255;-82
2023/03/24 00:15:48;;;;;;;7.33;6.43;;;;;;;;;;5061526;28;20711;-85
2023/03/24 00:18:14;;;;;;;8.57;6.40;;;;;;;;;;5055502;28;20194;-81
2023/03/24 00:20:41;;;;;;;10.47;6.17;;;;;;;;;;5070558;28;20415;-81
2023/03/24 00:23:07;;;;;;;7.97;6.40;;;;;;;;;;5104032;28;20219;-83
2023/03/24 00:25:39;;;;;;;9.03;6.70;;;;;;;;;;5090670;28;20186;-82
2023/03/24 00:28:10;;;;;;;8.33;6.43;;;;;;;;;;5093658;28;20187;-81
2023/03/24 00:30:36;;;;;;;11.90;6.73;;;;;;;;;;5109405;28;20684;-84
2023/03/24 00:33:03;;;;;;;8.47;6.27;;;;;;;;;;5092472;28;20186;-83
2023/03/24 00:35:29;;;;;;;8.93;6.63;;;;;;;;;;5105940;28;20172;-81
2023/03/24 00:37:57;;;;;;;9.17;6.60;;;;;;;;;;5092760;28;20322;-84
2023/03/24 00:40:24;;;;;;;9.97;6.70;;;;;;;;;;5092328;28;20176;-83
2023/03/24 00:42:50;;;;;;;10.13;6.90;;;;;;;;;;5107403;28;20191;-85
2023/03/24 00:45:18;;;;;;;10.17;7.27;;;;;;;;;;5092278;28;20275;-82
2023/03/24 00:47:48;;;;;;;8.20;6.23;;;;;;;;;;5090448;28;20654;-83
2023/03/24 00:50:17;;;;;;;9.23;6.30;;;;;;;;;;5084571;28;20260;-84
2023/03/24 00:52:46;;;;;;;7.03;5.80;;;;;;;;;;5106832;28;20207;-83
2023/03/24 00:55:14;;;;;;;10.37;6.30;;;;;;;;;;5109890;28;20214;-80
2023/03/24 00:57:48;;;;;;;6.97;5.77;;;;;;;;;;5087584;28;20489;-81
2023/03/24 01:00:18;;;;;;;10.17;6.70;;;;;;;;;;5076498;28;20295;-81
2023/03/24 01:02:45;;;;;;;9.00;6.60;;;;;;;;;;5091600;28;20219;-81
2023/03/24 01:05:13;;;;;;;9.83;6.90;;;;;;;;;;5077789;28;20199;-82
2023/03/24 01:07:41;;;;;;;8.67;6.77;;;;;;;;;;5104520;28;20213;-83
2023/03/24 01:10:08;;;;;;;7.47;6.13;;;;;;;;;;5107259;28;20540;-80
2023/03/24 01:12:35;;;;;;;6.70;5.97;;;;;;;;;;5089186;28;20218;-83
2023/03/24 01:15:04;;;;;;;9.60;6.77;;;;;;;;;;5091064;28;20172;-84
2023/03/24 01:17:31;;;;;;;7.83;6.20;;;;;;;;;;5091726;28;20649;-80
2023/03/24 01:19:58;;;;;;;7.27;6.47;;;;;;;;;;5090491;28;20637;-81
2023/03/24 01:22:29;;;;;;;7.80;6.40;;;;;;;;;;5082164;28;20713;-81
2023/03/24 01:24:55;;;;;;;9.70;6.70;;;;;;;;;;5083463;28;20177;-82
2023/03/24 01:27:21;;;;;;;11.47;6.07;;;;;;;;;;5089091;28;20642;-80
2023/03/24 01:29:47;;;;;;;8.60;6.43;;;;;;;;;;5086002;28;20172;-81
2023/03/24 01:32:39;;;;;;;8.83;6.70;;;;;;;;;;5089888;28;20203;-85
2023/03/24 01:35:06;;;;;;;7.73;5.73;;;;;;;;;;5085432;28;20177;-83
2023/03/24 01:37:32;;;;;;;8.30;6.47;;;;;;;;;;5086388;28;20180;-83
2023/03/24 01:39:58;;;;;;;8.47;6.13;;;;;;;;;;5086429;28;20180;-83
2023/03/24 01:42:26;;;;;;;9.57;6.50;;;;;;;;;;5086096;28;20218;-81
2023/03/24 01:44:56;;;;;;;8.93;6.50;;;;;;;;;;5073972;28;20575;-83
2023/03/24 01:47:23;;;;;;;8.60;5.97;;;;;;;;;;5090547;28;20259;-84
2023/03/24 01:50:01;;;;;;;9.50;6.27;;;;;;;;;;5086911;28;20187;-80
2023/03/24 01:52:29;;;;;;;9.33;6.73;;;;;;;;;;5083496;28;20208;-83
2023/03/24 01:55:02;;;;;;;10.00;6.60;;;;;;;;;;5085693;28;20542;-82
2023/03/24 01:57:34;;;;;;;9.50;6.80;;;;;;;;;;5087411;28;20781;-80
2023/03/24 02:00:04;;;;;;;8.57;7.13;;;;;;;;;;5071937;28;20235;-82
2023/03/24 02:02:36;;;;;;;10.80;7.03;;;;;;;;;;5089245;28;20553;-82
2023/03/24 02:05:03;;;;;;;13.60;6.90;;;;;;;;;;5087795;28;20244;-83
2023/03/24 02:07:29;;;;;;;8.10;6.40;;;;;;;;;;5086308;28;20195;-81
2023/03/24 02:09:55;;;;;;;9.50;6.67;;;;;;;;;;5086290;28;20594;-81
2023/03/24 02:12:21;;;;;;;10.17;6.50;;;;;;;;;;5087289;28;20185;-82
2023/03/24 02:14:48;;;;;;;8.77;6.07;;;;;;;;;;5077584;28;20181;-81
2023/03/24 02:17:37;;;;;;;7.67;5.83;;;;;;;;;;5077066;28;20189;-81
2023/03/24 02:20:24;;;;;;;8.70;6.60;;;;;;;;;;5077115;28;20645;-81
2023/03/24 02:22:49;;;;;;;7.67;6.27;;;;;;;;;;5097471;28;20215;-81
2023/03/24 02:25:28;;;;;;;9.80;6.30;;;;;;;;;;5089752;28;20187;-82
2023/03/24 02:27:54;;;;;;;8.83;6.53;;;;;;;;;;5108035;28;20186;-81
2023/03/24 02:30:47;;;;;;;9.07;6.27;;;;;;;;;;5085635;28;20654;-83
2023/03/24 02:33:24;;;;;;;7.53;6.20;;;;;;;;;;5087462;28;20191;-83
2023/03/24 02:35:53;;;;;;;7.20;5.80;;;;;;;;;;5089225;28;20187;-80
2023/03/24 02:38:28;;;;;;;9.67;6.43;;;;;;;;;;5090403;28;20528;-84
2023/03/24 02:41:08;;;;;;;7.57;6.17;;;;;;;;;;5089510;28;20222;-80
2023/03/24 02:43:46;;;;;;;8.13;6.37;;;;;;;;;;5106920;28;20195;-81
2023/03/24 02:46:20;;;;;;;8.40;6.30;;;;;;;;;;5105801;28;20183;-82
2023/03/24 02:49:01;;;;;;;6.77;5.80;;;;;;;;;;5107496;28;20183;-80
2023/03/24 02:51:32;;;;;;;7.37;5.53;;;;;;;;;;5089961;28;20656;-80
2023/03/24 02:54:07;;;;;;;8.63;6.67;;;;;;;;;;5104698;28;20203;-81
2023/03/24 02:56:34;;;;;;;7.40;5.73;;;;;;;;;;5090618;28;20665;-82
2023/03/24 02:59:09;;;;;;;9.13;6.00;;;;;;;;;;5108974;28;20552;-82
2023/03/24 03:01:40;;;;;;;8.17;6.57;;;;;;;;;;5082576;28;20268;-83
2023/03/24 03:04:15;;;;;;;9.17;6.23;;;;;;;;;;5082195;28;20184;-83
2023/03/24 03:06:43;;;;;;;8.20;5.97;;;;;;;;;;5083688;28;20184;-83
2023/03/24 03:09:11;;;;;;;7.60;5.53;;;;;;;;;;5087031;28;20180;-83
2023/03/24 03:11:40;;;;;;;9.50;6.23;;;;;;;;;;5090418;28;20180;-82
2023/03/24 03:14:15;;;;;;;6.57;5.87;;;;;;;;;;5077514;28;20180;-83
2023/03/24 03:17:03;;;;;;;7.73;5.63;;;;;;;;;;5086349;28;20186;-80
2023/03/24 03:19:32;;;;;;;9.50;6.20;;;;;;;;;;5089563;28;20172;-81
2023/03/24 03:22:00;;;;;;;7.17;5.57;;;;;;;;;;5103795;28;20230;-80
2023/03/24 03:24:38;;;;;;;7.47;5.77;;;;;;;;;;5088048;28;20194;-82
2023/03/24 03:27:13;;;;;;;9.23;6.20;;;;;;;;;;5086804;28;20183;-80
2023/03/24 03:29:41;;;;;;;6.33;5.47;;;;;;;;;;5106659;28;20171;-82
2023/03/24 03:32:10;;;;;;;7.50;5.77;;;;;;;;;;5107645;28;20191;-83
2023/03/24 03:34:54;;;;;;;8.90;6.20;;;;;;;;;;5088617;28;20187;-81
2023/03/24 03:37:27;;;;;;;8.07;6.17;;;;;;;;;;5086237;28;20172;-81
2023/03/24 03:39:58;;;;;;;8.80;6.00;;;;;;;;;;5105759;28;20176;-81
2023/03/24 03:42:24;;;;;;;8.80;6.17;;;;;;;;;;5088126;28;20210;-81
2023/03/24 03:44:51;;;;;;;11.00;7.00;;;;;;;;;;5091687;28;20172;-81
2023/03/24 03:47:17;;;;;;;8.50;6.00;;;;;;;;;;5107043;28;20176;-82
2023/03/24 03:49:44;;;;;;;8.93;6.40;;;;;;;;;;5091393;28;20192;-81
2023/03/24 03:52:14;;;;;;;8.13;6.20;;;;;;;;;;5087348;28;20643;-83
2023/03/24 03:54:41;;;;;;;9.17;6.60;;;;;;;;;;5091812;28;20176;-84
2023/03/24 03:57:07;;;;;;;8.80;6.27;;;;;;;;;;5091309;28;20657;-81
2023/03/24 03:59:35;;;;;;;9.33;6.13;;;;;;;;;;5110255;28;20203;-81
2023/03/24 04:02:16;;;;;;;7.33;6.20;;;;;;;;;;5091466;28;20222;-80
2023/03/24 04:04:51;;;;;;;8.30;6.07;;;;;;;;;;5107861;28;20271;-84
2023/03/24 04:07:29;;;;;;;8.67;6.43;;;;;;;;;;5091874;28;20183;-82
2023/03/24 04:09:58;;;;;;;7.17;6.03;;;;;;;;;;5092245;28;20252;-80
2023/03/24 04:12:28;;;;;;;8.87;7.07;;;;;;;;;;5087855;28;20669;-84
2023/03/24 04:15:21;;;;;;;7.50;5.90;;;;;;;;;;5088521;28;20171;-84
2023/03/24 04:18:05;;;;;;;8.43;6.77;;;;;;;;;;5105286;28;20633;-81
2023/03/24 04:20:37;;;;;;;9.13;6.93;;;;;;;;;;5088449;28;20184;-82
2023/03/24 04:23:13;;;;;;;9.07;6.63;;;;;;;;;;5105305;28;20250;-83
2023/03/24 04:25:43;;;;;;;10.03;7.17;;;;;;;;;;5109063;28;20175;-84
2023/03/24 04:28:27;;;;;;;8.67;6.73;;;;;;;;;;5092719;28;20199;-83
2023/03/24 04:31:06;;;;;;;9.47;6.10;;;;;;;;;;5078920;28;20191;-83
2023/03/24 04:33:41;;;;;;;11.63;7.33;;;;;;;;;;5108134;28;20618;-81
2023/03/24 04:36:15;;;;;;;9.40;6.83;;;;;;;;;;5089571;28;20589;-83
2023/03/24 04:38:45;;;;;;;6.80;5.87;;;;;;;;;;5090163;28;20507;-81
2023/03/24 04:41:11;;;;;;;9.30;7.10;;;;;;;;;;5090550;28;20203;-82
2023/03/24 04:43:37;;;;;;;8.43;6.97;;;;;;;;;;5107051;28;20175;-82
2023/03/24 04:46:05;;;;;;;7.73;6.50;;;;;;;;;;5089760;28;20223;-83
2023/03/24 04:48:31;;;;;;;8.20;7.03;;;;;;;;;;5089542;28;20183;-84
2023/03/24 04:51:00;;;;;;;8.40;7.27;;;;;;;;;;5091084;28;20237;-80
2023/03/24 04:53:26;;;;;;;9.17;7.73;;;;;;;;;;5091477;28;20267;-83
2023/03/24 04:56:25;;;;;;;10.03;7.67;;;;;;;;;;5091150;28;20549;-80
2023/03/24 04:58:53;;;;;;;12.37;8.00;;;;;;;;;;4993918;28;20794;-82
2023/03/24 05:01:20;;;;;;;10.70;8.03;;;;;;;;;;5006177;28;20227;-82
2023/03/24 05:03:46;;;;;;;10.07;7.20;;;;;;;;;;4992910;28;20187;-83
2023/03/24 05:06:19;;;;;;;10.77;7.47;;;;;;;;;;4994454;28;20183;-82
2023/03/24 05:08:46;;;;;;;10.60;8.03;;;;;;;;;;5009454;28;20203;-82
2023/03/24 05:11:12;;;;;;;10.93;7.57;;;;;;;;;;5011823;28;20187;-82
2023/03/24 05:13:39;;;;;;;11.27;8.27;;;;;;;;;;5011564;28;20191;-84
2023/03/24 05:16:05;;;;;;;10.67;8.20;;;;;;;;;;5007486;28;20215;-80
2023/03/24 05:18:31;;;;;;;10.63;8.23;;;;;;;;;;5007748;28;20773;-81
2023/03/24 05:20:58;;;;;;;12.20;9.27;;;;;;;;;;4992275;28;20700;-80
2023/03/24 05:23:25;;;;;;;10.77;8.43;;;;;;;;;;5011166;28;20226;-80
2023/03/24 05:25:51;;;;;;;11.37;8.70;;;;;;;;;;5013220;28;20207;-82
2023/03/24 05:28:17;;;;;;;13.77;9.20;;;;;;;;;;5006893;28;20209;-81
2023/03/24 05:30:44;;;;;;;12.47;8.57;;;;;;;;;;5005754;28;20617;-82
2023/03/24 05:36:14;;;;;;;10.40;8.27;;;;;;;;;;5109364;28;20263;-80
2023/03/24 05:38:40;;;;;;;13.77;9.57;;;;;;;;;;5085749;28;20184;-81
2023/03/24 05:41:06;;;;;;;11.10;8.70;;;;;;;;;;5084701;28;20200;-84
2023/03/24 05:43:32;;;;;;;11.40;8.80;;;;;;;;;;5079332;28;20269;-84
2023/03/24 05:45:59;;;;;;;15.00;9.03;;;;;;;;;;5088157;28;20184;-84
2023/03/24 05:48:26;;;;;;;13.37;9.43;;;;;;;;;;5093882;28;20164;-84
2023/03/24 05:50:52;;;;;;;10.47;8.47;;;;;;;;;;5108637;28;20267;-82
2023/03/24 05:53:18;;;;;;;13.40;9.30;;;;;;;;;;5087620;28;20188;-84
2023/03/24 05:55:45;;;;;;;11.80;9.03;;;;;;;;;;5089107;28;20228;-83
2023/03/24 05:58:14;;;;;;;11.87;8.93;;;;;;;;;;5088715;28;20186;-81
2023/03/24 06:00:40;;;;;;;11.20;9.00;;;;;;;;;;5089689;28;20184;-83
2023/03/24 06:03:06;;;;;;;11.40;9.40;;;;;;;;;;5078544;28;20177;-84
2023/03/24 06:05:32;;;;;;;13.70;9.63;;;;;;;;;;5094268;28;20649;-83
2023/03/24 06:08:13;;;;;;;11.70;9.77;;;;;;;;;;5100591;28;20191;-84
2023/03/24 06:10:39;;;;;;;13.33;9.80;;;;;;;;;;5089882;28;20201;-80
2023/03/24 06:13:07;;;;;;;14.10;10.53;;;;;;;;;;5107208;28;20218;-81
2023/03/24 06:15:33;;;;;;;17.47;10.83;;;;;;;;;;5087219;28;20652;-82
2023/03/24 06:17:59;;;;;;;14.83;11.00;;;;;;;;;;5088653;28;20205;-83
2023/03/24 06:20:26;;;;;;;15.70;11.77;;;;;;;;;;5078830;28;20241;-81
2023/03/24 06:22:57;;;;;;;16.20;11.43;;;;;;;;;;5100985;28;20280;-81
2023/03/24 06:25:26;;;;;;;15.77;11.40;;;;;;;;;;5100784;28;20194;-82
2023/03/24 06:27:52;;;;;;;15.87;10.90;;;;;;;;;;5083666;28;20448;-83
2023/03/24 06:30:18;;;;;;;16.07;10.90;;;;;;;;;;5092427;28;20180;-83
2023/03/24 06:32:45;;;;;;;16.87;11.60;;;;;;;;;;5088025;28;20175;-84
2023/03/24 06:35:15;;;;;;;17.20;11.40;;;;;;;;;;5086144;28;20188;-83
2023/03/24 06:37:48;;;;;;;15.30;11.43;;;;;;;;;;5103570;28;20183;-83
2023/03/24 06:40:16;;;;;;;14.03;11.10;;;;;;;;;;5082366;28;20234;-85
2023/03/24 06:42:42;;;;;;;13.83;10.73;;;;;;;;;;5083669;28;20211;-83
2023/03/24 06:45:09;;;;;;;15.17;11.47;;;;;;;;;;5085747;28;20188;-82
2023/03/24 06:47:36;;;;;;;12.63;10.77;;;;;;;;;;5084584;28;20187;-85
2023/03/24 06:50:02;;;;;;;16.40;10.73;;;;;;;;;;5101771;28;20614;-83
2023/03/24 06:52:28;;;;;;;15.10;10.90;;;;;;;;;;5083730;28;20261;-84
2023/03/24 06:54:56;;;;;;;12.97;10.53;;;;;;;;;;5087449;28;20696;-83
2023/03/24 06:57:22;;;;;;;15.63;10.57;;;;;;;;;;5086108;28;20183;-82
2023/03/24 06:59:48;;;;;;;14.70;10.13;;;;;;;;;;5087661;28;20260;-85
2023/03/24 07:02:14;;;;;;;14.20;10.87;;;;;;;;;;5087060;28;20210;-87
2023/03/24 07:04:41;;;;;;;15.30;10.20;;;;;;;;;;5102302;28;20188;-83
2023/03/24 07:07:07;;;;;;;12.47;9.67;;;;;;;;;;5091548;28;20203;-84
2023/03/24 07:09:33;;;;;;;14.00;9.37;;;;;;;;;;5086444;28;20258;-84
2023/03/24 07:12:02;;;;;;;12.47;9.63;;;;;;;;;;5087449;28;20206;-86
2023/03/24 07:14:29;;;;;;;12.03;9.10;;;;;;;;;;5082916;28;20519;-84
2023/03/24 07:16:55;;;;;;;11.53;9.23;;;;;;;;;;5104738;28;20270;-84
2023/03/24 07:19:21;;;;;;;10.43;8.70;;;;;;;;;;5087275;28;20184;-85
2023/03/24 07:21:48;;;;;;;10.33;8.77;;;;;;;;;;5090084;28;20242;-84
2023/03/24 07:24:15;;;;;;;9.73;8.20;;;;;;;;;;5108480;28;20229;-83
2023/03/24 07:26:43;;;;;;;12.47;8.57;;;;;;;;;;5089634;28;20683;-86
2023/03/24 07:29:10;;;;;;;10.97;8.20;;;;;;;;;;5098530;28;20237;-86
2023/03/24 07:31:38;;;;;;;8.77;7.63;;;;;;;;;;5083148;28;20663;-83
2023/03/24 07:34:05;;;;;;;10.43;7.33;;;;;;;;;;5087337;28;20176;-82
2023/03/24 07:36:31;;;;;;;9.83;7.53;;;;;;;;;;5086023;28;20180;-84
2023/03/24 07:38:57;;;;;;;11.20;7.83;;;;;;;;;;5087298;28;20176;-82
2023/03/24 07:41:26;;;;;;;13.20;8.17;;;;;;;;;;5081787;28;20218;-84
2023/03/24 07:43:52;;;;;;;10.40;7.80;;;;;;;;;;5096202;28;20190;-84
2023/03/24 07:46:18;;;;;;;10.30;8.23;;;;;;;;;;5087419;28;20229;-83
2023/03/24 07:48:44;;;;;;;9.17;7.77;;;;;;;;;;5089427;28;20184;-83
2023/03/24 07:51:10;;;;;;;13.23;7.63;;;;;;;;;;5104135;28;20630;-84
2023/03/24 07:53:36;;;;;;;10.67;7.97;;;;;;;;;;5087836;28;20184;-84
2023/03/24 07:56:03;;;;;;;10.33;8.20;;;;;;;;;;5090008;28;20190;-83
2023/03/24 07:58:29;;;;;;;10.13;8.27;;;;;;;;;;5102771;28;20188;-84
2023/03/24 08:00:55;;;;;;;11.57;8.17;;;;;;;;;;5112318;28;20171;-83
2023/03/24 08:03:24;;;;;;;10.37;8.30;;;;;;;;;;5094563;28;20194;-84
2023/03/24 08:05:50;;;;;;;12.57;8.90;;;;;;;;;;5108096;28;20180;-82
2023/03/24 08:08:16;;;;;;;12.60;8.60;;;;;;;;;;5092845;28;20631;-84
2023/03/24 08:10:44;;;;;;;10.27;9.03;;;;;;;;;;5092036;28;20210;-82
2023/03/24 08:13:10;;;;;;;12.50;9.20;;;;;;;;;;5090962;28;20181;-82
2023/03/24 08:15:36;;;;;;;11.57;9.57;;;;;;;;;;5091746;28;20542;-83
2023/03/24 08:18:03;;;;;;;13.23;9.57;;;;;;;;;;5109045;28;20176;-84
2023/03/24 08:20:29;;;;;;;13.37;10.13;;;;;;;;;;5089183;28;20176;-82
2023/03/24 08:22:56;;;;;;;14.90;10.23;;;;;;;;;;5106435;28;20261;-84
2023/03/24 08:25:23;;;;;;;13.10;10.17;;;;;;;;;;5092566;28;20180;-84
2023/03/24 08:27:51;;;;;;;14.57;10.30;;;;;;;;;;5089449;28;20208;-82
2023/03/24 08:30:19;;;;;;;14.03;10.70;;;;;;;;;;5107192;28;20191;-85
2023/03/24 08:32:49;;;;;;;15.43;10.87;;;;;;;;;;5085645;28;20188;-83
2023/03/24 08:35:18;;;;;;;14.33;10.20;;;;;;;;;;5091286;28;20187;-85
2023/03/24 08:37:44;;;;;;;18.13;11.23;;;;;;;;;;5109050;28;20184;-82
2023/03/24 08:40:18;;;;;;;13.67;9.67;;;;;;;;;;5079710;28;20575;-83
2023/03/24 08:42:44;;;;;;;14.67;11.03;;;;;;;;;;5106829;28;20717;-83
2023/03/24 08:45:11;;;;;;;11.77;9.77;;;;;;;;;;5090262;28;20203;-84
2023/03/24 08:47:38;;;;;;;12.33;10.00;;;;;;;;;;5092687;28;20180;-84
2023/03/24 08:50:05;;;;;;;16.00;9.97;;;;;;;;;;5091038;28;20654;-82
2023/03/24 08:52:31;;;;;;;14.03;10.03;;;;;;;;;;5104413;28;20210;-83
2023/03/24 08:54:57;;;;;;;15.40;10.33;;;;;;;;;;5091529;28;20182;-83
2023/03/24 08:57:25;;;;;;;13.67;10.37;;;;;;;;;;5095770;28;20265;-84
2023/03/24 08:59:51;;;;;;;14.37;10.47;;;;;;;;;;5105205;28;20183;-82
2023/03/24 09:02:17;;;;;;;11.90;10.07;;;;;;;;;;5091495;28;20898;-83
2023/03/24 09:04:44;;;;;;;12.87;11.47;;;;;;;;;;5090462;28;20264;-85
2023/03/24 09:07:11;;;;;;;15.13;10.23;;;;;;;;;;5088432;28;20176;-85
2023/03/24 09:09:38;;;;;;;16.33;11.50;;;;;;;;;;5090695;28;20176;-83
2023/03/24 09:12:05;;;;;;;13.63;10.17;;;;;;;;;;5092914;28;20203;-83
2023/03/24 09:14:31;;;;;;;12.23;9.97;;;;;;;;;;5106529;28;20187;-83
2023/03/24 09:16:57;;;;;;;11.77;9.70;;;;;;;;;;5087945;28;20176;-84
2023/03/24 09:19:23;;;;;;;12.40;10.00;;;;;;;;;;5106740;28;20645;-84
2023/03/24 09:21:49;;;;;;;10.47;8.53;;;;;;;;;;5104863;28;20281;-83
2023/03/24 09:24:15;;;;;;;10.90;9.17;;;;;;;;;;5088664;28;20188;-83
2023/03/24 09:26:41;;;;;;;13.30;8.93;;;;;;;;;;5088701;28;20172;-82
2023/03/24 09:29:08;;;;;;;10.07;8.43;;;;;;;;;;5104166;28;20230;-85
2023/03/24 09:31:35;;;;;;;12.37;8.87;;;;;;;;;;5091127;28;20188;-84
2023/03/24 09:34:02;;;;;;;10.30;7.73;;;;;;;;;;5110275;28;20267;-85
2023/03/24 09:36:28;;;;;;;9.80;7.83;;;;;;;;;;5106723;28;20200;-85
2023/03/24 09:38:55;;;;;;;9.67;8.50;;;;;;;;;;5105400;28;20497;-84
2023/03/24 09:41:27;;;;;;;9.63;7.67;;;;;;;;;;5089804;28;20929;-84
2023/03/24 09:43:54;;;;;;;10.27;7.87;;;;;;;;;;5088138;28;20660;-85
2023/03/24 09:46:29;;;;;;;9.10;7.70;;;;;;;;;;5076278;28;21196;-85
2023/03/24 09:48:58;;;;;;;9.83;7.30;;;;;;;;;;5094567;28;20171;-85
2023/03/24 09:51:44;;;;;;;9.33;8.10;;;;;;;;;;5093801;28;20216;-83
2023/03/24 09:54:16;;;;;;;10.33;7.93;;;;;;;;;;5090310;28;20176;-85
2023/03/24 09:56:44;;;;;;;9.70;7.77;;;;;;;;;;5093501;28;20184;-84
2023/03/24 09:59:16;;;;;;;11.57;7.53;;;;;;;;;;5087983;28;20175;-87
2023/03/24 10:01:42;;;;;;;8.50;7.53;;;;;;;;;;5107839;28;20720;-85
2023/03/24 10:04:14;;;;;;;10.63;8.03;;;;;;;;;;5089770;28;20208;-85
2023/03/24 10:06:43;;;;;;;9.70;7.87;;;;;;;;;;5095540;28;20187;-83
2023/03/24 10:09:22;;;;;;;9.77;7.60;;;;;;;;;;5111088;28;20218;-86
2023/03/24 10:11:55;;;;;;;10.33;7.93;;;;;;;;;;5093704;28;20439;-85
2023/03/24 10:14:30;;;;;;;10.27;7.60;;;;;;;;;;5094530;28;20180;-83
2023/03/24 10:17:03;;;;;;;11.10;8.10;;;;;;;;;;5109752;28;20231;-84
2023/03/24 10:19:29;;;;;;;9.40;7.73;;;;;;;;;;5089778;28;20648;-82
2023/03/24 10:21:58;;;;;;;10.33;7.40;;;;;;;;;;5089920;28;20231;-85
2023/03/24 10:24:33;;;;;;;9.37;7.30;;;;;;;;;;5090699;28;20183;-83
2023/03/24 10:27:04;;;;;;;9.07;7.87;;;;;;;;;;5079204;28;20637;-85
2023/03/24 10:29:31;;;;;;;9.00;7.60;;;;;;;;;;5086174;28;20212;-83
2023/03/24 10:32:06;;;;;;;8.07;6.93;;;;;;;;;;5104877;28;20665;-81
2023/03/24 10:34:33;;;;;;;9.03;7.23;;;;;;;;;;5106954;28;20209;-82
2023/03/24 10:37:01;;;;;;;9.03;7.10;;;;;;;;;;5092115;28;20176;-83
2023/03/24 10:39:29;;;;;;;11.03;6.83;;;;;;;;;;5091069;28;20240;-85
2023/03/24 10:41:56;;;;;;;9.50;6.77;;;;;;;;;;5088040;28;20347;-87
2023/03/24 10:44:22;;;;;;;7.40;6.33;;;;;;;;;;5108531;28;20187;-82
2023/03/24 10:46:52;;;;;;;9.57;6.83;;;;;;;;;;5092772;28;20180;-85
2023/03/24 10:49:19;;;;;;;7.60;6.00;;;;;;;;;;5110252;28;20635;-85
2023/03/24 10:51:48;;;;;;;8.53;6.37;;;;;;;;;;5109478;28;20191;-81
2023/03/24 10:54:24;;;;;;;7.47;6.03;;;;;;;;;;5086203;28;20186;-82
2023/03/24 10:56:50;;;;;;;8.20;6.47;;;;;;;;;;5091566;28;20274;-86
2023/03/24 10:59:26;;;;;;;8.10;6.20;;;;;;;;;;5085620;28;20188;-84
2023/03/24 11:02:18;;;;;;;8.27;6.50;;;;;;;;;;5092549;28;20212;-84
2023/03/24 11:04:52;;;;;;;8.97;6.23;;;;;;;;;;5076463;28;20842;-85
2023/03/24 11:07:19;;;;;;;9.73;6.73;;;;;;;;;;5086515;28;20200;-85
2023/03/24 11:09:47;;;;;;;7.73;6.20;;;;;;;;;;5098596;28;20180;-85
2023/03/24 11:12:21;;;;;;;6.70;5.83;;;;;;;;;;5075853;28;20188;-82
2023/03/24 11:14:47;;;;;;;11.03;5.73;;;;;;;;;;5081295;28;20176;-84
2023/03/24 11:17:15;;;;;;;7.90;6.30;;;;;;;;;;5090557;28;20270;-85
2023/03/24 11:19:52;;;;;;;7.47;6.00;;;;;;;;;;5090422;28;20240;-84
2023/03/24 11:22:18;;;;;;;7.03;6.17;;;;;;;;;;5088964;28;20227;-84
2023/03/24 11:24:47;;;;;;;9.57;6.50;;;;;;;;;;5085904;28;20191;-86
2023/03/24 11:27:15;;;;;;;12.73;6.73;;;;;;;;;;5105719;28;20210;-84
2023/03/24 11:29:42;;;;;;;9.17;7.07;;;;;;;;;;5087336;28;20183;-84
2023/03/24 11:32:12;;;;;;;9.13;6.87;;;;;;;;;;5084046;28;20273;-83
2023/03/24 11:34:44;;;;;;;7.70;6.90;;;;;;;;;;5094505;28;20694;-82
2023/03/24 11:37:13;;;;;;;7.03;6.13;;;;;;;;;;5079078;28;20296;-83
2023/03/24 11:39:39;;;;;;;8.30;6.60;;;;;;;;;;5094638;28;20665;-82
2023/03/24 11:42:05;;;;;;;8.70;6.50;;;;;;;;;;5097956;28;20209;-86
2023/03/24 11:44:38;;;;;;;8.33;6.10;;;;;;;;;;5095129;28;20240;-85
2023/03/24 11:47:05;;;;;;;8.83;6.33;;;;;;;;;;5095174;28;20185;-87
2023/03/24 11:49:34;;;;;;;7.27;5.60;;;;;;;;;;5095560;28;20188;-84
2023/03/24 11:52:02;;;;;;;7.63;5.70;;;;;;;;;;5082415;28;20176;-85
2023/03/24 11:54:31;;;;;;;7.00;5.83;;;;;;;;;;5085203;28;20180;-85
2023/03/24 11:56:59;;;;;;;9.23;5.87;;;;;;;;;;5108549;28;20185;-84
2023/03/24 11:59:44;;;;;;;7.63;5.77;;;;;;;;;;5097165;28;20278;-84
2023/03/24 12:02:10;;;;;;;8.47;5.70;;;;;;;;;;5096880;28;20210;-84
2023/03/24 12:04:58;;;;;;;6.70;5.27;;;;;;;;;;5095568;28;20180;-86
2023/03/24 12:08:03;;;;;;;5.33;4.43;;;;;;;;;;5113243;28;20180;-88
2023/03/24 12:10:35;;;;;;;4.97;4.10;;;;;;;;;;5020824;28;20228;-83
2023/03/24 12:13:07;;;;;;;7.27;4.80;;;;;;;;;;5039012;28;20185;-84
2023/03/24 12:15:53;;;;;;;5.27;4.50;;;;;;;;;;5038660;28;20193;-81
2023/03/24 12:18:27;;;;;;;4.93;4.40;;;;;;;;;;5028157;28;20199;-81
2023/03/24 12:21:03;;;;;;;4.73;4.00;;;;;;;;;;5026645;28;20193;-81
2023/03/24 12:23:45;;;;;;;5.30;4.30;;;;;;;;;;5043262;28;20794;-80
2023/03/24 12:26:23;;;;;;;9.23;4.10;;;;;;;;;;5053444;28;20197;-80
2023/03/24 12:28:56;;;;;;;6.67;4.27;;;;;;;;;;5052900;28;20197;-79
2023/03/24 12:31:28;;;;;;;5.50;4.10;;;;;;;;;;5052236;28;20578;-79
2023/03/24 12:34:06;;;;;;;5.07;4.50;;;;;;;;;;5051802;28;20182;-81
2023/03/24 12:36:32;;;;;;;6.60;4.40;;;;;;;;;;5034328;28;20185;-80
2023/03/24 12:39:19;;;;;;;6.03;4.60;;;;;;;;;;5047936;28;20185;-79
2023/03/24 12:41:54;;;;;;;5.43;4.50;;;;;;;;;;5075857;28;20219;-80
2023/03/24 12:44:29;;;;;;;7.87;4.67;;;;;;;;;;5096081;28;20688;-80
2023/03/24 12:47:05;;;;;;;6.73;4.70;;;;;;;;;;5083969;28;20198;-79
2023/03/24 12:49:47;;;;;;;7.10;5.07;;;;;;;;;;5090139;28;20187;-79
2023/03/24 12:52:24;;;;;;;5.17;4.47;;;;;;;;;;5086029;28;20765;-79
2023/03/24 12:55:03;;;;;;;5.30;3.90;;;;;;;;;;5091969;28;20186;-79
2023/03/24 12:57:33;;;;;;;6.97;3.70;;;;;;;;;;5085173;28;20630;-79
2023/03/24 13:00:04;;;;;;;7.10;4.40;;;;;;;;;;5082659;28;20666;-78
2023/03/24 13:02:46;;;;;;;6.30;4.63;;;;;;;;;;5088466;28;20303;-79
2023/03/24 13:05:18;;;;;;;5.23;4.00;;;;;;;;;;5106858;28;20200;-79
2023/03/24 13:07:46;;;;;;;4.07;3.67;;;;;;;;;;5107893;28;20191;-78
2023/03/24 13:10:12;;;;;;;4.83;4.00;;;;;;;;;;5100272;28;20172;-79
2023/03/24 13:12:46;;;;;;;6.63;4.10;;;;;;;;;;5106710;28;20592;-79
2023/03/24 13:15:15;;;;;;;5.43;4.00;;;;;;;;;;5099030;28;20649;-79
2023/03/24 13:18:03;;;;;;;4.67;3.47;;;;;;;;;;5089180;28;20641;-79
2023/03/24 13:20:49;;;;;;;6.77;3.67;;;;;;;;;;5084317;28;20292;-78
2023/03/24 13:23:18;;;;;;;4.87;3.63;;;;;;;;;;5105395;28;20556;-79
2023/03/24 13:26:14;;;;;;;7.87;3.63;;;;;;;;;;5092631;28;20188;-79
2023/03/24 13:28:49;;;;;;;6.23;3.40;;;;;;;;;;5069376;28;20183;-79
2023/03/24 13:31:15;;;;;;;3.80;3.20;;;;;;;;;;5099232;28;20923;-78
2023/03/24 13:33:43;;;;;;;5.93;3.57;;;;;;;;;;5088151;28;20180;-78
2023/03/24 13:36:28;;;;;;;3.47;3.17;;;;;;;;;;5089820;28;20176;-79
2023/03/24 13:38:55;;;;;;;5.10;3.57;;;;;;;;;;5087855;28;20800;-78
2023/03/24 13:41:23;;;;;;;3.07;2.77;;;;;;;;;;5106427;28;20203;-78
2023/03/24 13:44:06;;;;;;;4.53;3.30;;;;;;;;;;5088704;28;20616;-78
2023/03/24 13:46:35;;;;;;;6.50;3.13;;;;;;;;;;5087994;28;20179;-78
2023/03/24 13:49:05;;;;;;;5.03;3.63;;;;;;;;;;5095916;28;20656;-78
2023/03/24 13:51:31;;;;;;;4.60;3.10;;;;;;;;;;5101932;28;20191;-78
2023/03/24 13:54:06;;;;;;;4.90;3.30;;;;;;;;;;5107057;28;20171;-78
2023/03/24 13:56:32;;;;;;;3.23;2.87;;;;;;;;;;5087339;28;20684;-79
2023/03/24 13:58:58;;;;;;;4.67;3.27;;;;;;;;;;5104104;28;20468;-78
2023/03/24 14:01:32;;;;;;;5.47;3.00;;;;;;;;;;5092429;28;20684;-79
2023/03/24 14:04:14;;;;;;;3.70;3.00;;;;;;;;;;5072920;28;20705;-80
2023/03/24 14:06:45;;;;;;;5.07;3.10;;;;;;;;;;5078258;28;20188;-81
2023/03/24 14:09:37;;;;;;;4.37;3.00;;;;;;;;;;5098375;27;20184;-79
2023/03/24 14:12:03;;;;;;;5.23;3.17;;;;;;;;;;5085588;28;20279;-79
2023/03/24 14:14:30;;;;;;;4.43;3.23;;;;;;;;;;5103043;27;20289;-78
2023/03/24 14:17:02;;;;;;;4.10;3.07;;;;;;;;;;5097559;28;20183;-78
2023/03/24 14:19:37;;;;;;;3.30;3.00;;;;;;;;;;5105403;28;20183;-79
2023/03/24 14:22:12;;;;;;;4.50;3.50;;;;;;;;;;5105808;27;20740;-80
2023/03/24 14:24:39;;;;;;;4.67;3.20;;;;;;;;;;5092658;27;20178;-80
2023/03/24 14:27:24;;;;;;;3.63;3.33;;;;;;;;;;5088364;28;20186;-80
2023/03/24 14:29:51;;;;;;;3.10;2.80;;;;;;;;;;5092271;28;20180;-81
2023/03/24 14:32:20;;;;;;;4.27;2.93;;;;;;;;;;5089029;28;20229;-79
2023/03/24 14:34:54;;;;;;;4.80;2.70;;;;;;;;;;5102061;28;20164;-79
2023/03/24 14:37:21;;;;;;;3.90;3.07;;;;;;;;;;5103310;28;20176;-79
2023/03/24 14:39:48;;;;;;;4.20;2.83;;;;;;;;;;5085185;28;20185;-79
2023/03/24 14:42:32;;;;;;;5.30;3.00;;;;;;;;;;5107935;28;20609;-80
2023/03/24 14:44:59;;;;;;;3.80;3.10;;;;;;;;;;5107023;28;20188;-80
2023/03/24 14:47:27;;;;;;;4.80;3.10;;;;;;;;;;5109263;28;20207;-79
2023/03/24 14:49:57;;;;;;;3.33;2.93;;;;;;;;;;5074100;28;20191;-81
2023/03/24 14:52:24;;;;;;;3.70;3.07;;;;;;;;;;5109701;28;20167;-80
2023/03/24 14:54:53;;;;;;;4.27;3.03;;;;;;;;;;5107905;28;20187;-80
2023/03/24 14:57:25;;;;;;;2.90;2.50;;;;;;;;;;5106686;28;20191;-80